createdAt,value
2022-12-13T00:00:47.181Z,100330.38
2022-12-13T00:03:13.749Z,100334.69
2022-12-13T00:05:45.028Z,100330.50
2022-12-13T00:08:11.758Z,100323.50
2022-12-13T00:10:38.888Z,100326.19
2022-12-13T00:13:05.538Z,100318.53
2022-12-13T00:15:32.323Z,100319.53
2022-12-13T00:17:58.946Z,100317.84
2022-12-13T00:20:25.533Z,100313.44
2022-12-13T00:22:52.304Z,100327.31
2022-12-13T00:25:21.347Z,100322.13
2022-12-13T00:27:47.991Z,100321.25
2022-12-13T00:30:15.047Z,100314.47
2022-12-13T00:32:41.580Z,100311.81
2022-12-13T00:35:08.405Z,100317.88
2022-12-13T00:37:34.995Z,100313.97
2022-12-13T00:40:01.516Z,100313.13
2022-12-13T00:42:28.053Z,100303.91
2022-12-13T00:44:54.594Z,100309.72
2022-12-13T00:47:22.308Z,100308.81
2022-12-13T00:49:49.009Z,100305.28
2022-12-13T00:52:15.602Z,100296.50
2022-12-13T00:54:42.234Z,100305.28
2022-12-13T00:57:08.748Z,100301.81
2022-12-13T00:59:35.275Z,100299.19
2022-12-13T01:02:01.809Z,100294.88
2022-12-13T01:04:28.748Z,100297.97
2022-12-13T01:06:55.393Z,100294.31
2022-12-13T01:09:27.613Z,100289.00
2022-12-13T01:11:59.176Z,100284.59
2022-12-13T01:14:26.901Z,100282.97
2022-12-13T01:16:56.857Z,100283.84
2022-12-13T01:19:25.653Z,100281.09
2022-12-13T01:21:56.701Z,100285.38
2022-12-13T01:24:24.749Z,100278.31
2022-12-13T01:26:53.452Z,100283.69
2022-12-13T01:29:25.851Z,100276.03
2022-12-13T01:31:53.433Z,100277.03
2022-12-13T01:34:21.876Z,100279.69
2022-12-13T01:36:58.616Z,100283.19
2022-12-13T01:39:27.365Z,100289.19
2022-12-13T01:42:03.392Z,100287.50
2022-12-13T01:44:52.754Z,100294.56
2022-12-13T01:47:50.429Z,100292.88
2022-12-13T01:50:38.952Z,100292.28
2022-12-13T01:53:08.395Z,100284.44
2022-12-13T01:55:41.758Z,100280.97
2022-12-13T01:58:09.868Z,100280.47
2022-12-13T02:00:36.604Z,100281.09
2022-12-13T02:03:08.452Z,100279.28
2022-12-13T02:06:03.447Z,100288.03
2022-12-13T02:08:30.877Z,100285.41
2022-12-13T02:11:03.229Z,100280.19
2022-12-13T02:13:29.807Z,100281.03
2022-12-13T02:16:26.695Z,100276.66
2022-12-13T02:19:32.250Z,100280.13
2022-12-13T02:22:06.439Z,100274.06
2022-12-13T02:24:48.958Z,100277.41
2022-12-13T02:27:34.316Z,100273.06
2022-12-13T02:30:20.536Z,100273.91
2022-12-13T02:33:12.243Z,100273.78
2022-12-13T02:36:10.583Z,100270.66
2022-12-13T02:38:56.201Z,100274.31
2022-12-13T02:41:34.305Z,100269.72
2022-12-13T02:44:32.017Z,100264.63
2022-12-13T02:47:05.426Z,100262.16
2022-12-13T02:49:44.730Z,100265.53
2022-12-13T02:52:13.442Z,100259.41
2022-12-13T02:54:49.050Z,100265.41
2022-12-13T02:57:34.277Z,100260.38
2022-12-13T03:00:10.640Z,100263.84
2022-12-13T03:02:50.024Z,100265.41
2022-12-13T03:05:57.294Z,100247.88
2022-12-13T03:08:31.010Z,100248.09
2022-12-13T03:11:14.063Z,100250.91
2022-12-13T03:14:00.002Z,100256.56
2022-12-13T03:16:34.374Z,100246.91
2022-12-13T03:19:03.996Z,100245.94
2022-12-13T03:21:45.540Z,100246.19
2022-12-13T03:24:16.250Z,100250.75
2022-12-13T03:26:44.232Z,100251.19
2022-12-13T03:29:11.230Z,100252.13
2022-12-13T03:31:37.865Z,100255.91
2022-12-13T03:34:04.919Z,100255.56
2022-12-13T03:36:32.261Z,100243.50
2022-12-13T03:38:59.775Z,100242.47
2022-12-13T03:41:31.692Z,100248.34
2022-12-13T03:44:05.314Z,100245.06
2022-12-13T03:46:32.108Z,100257.81
2022-12-13T03:48:58.976Z,100255.00
2022-12-13T03:51:25.704Z,100248.47
2022-12-13T03:53:52.240Z,100251.22
2022-12-13T03:56:18.842Z,100249.47
2022-12-13T03:58:45.527Z,100246.00
2022-12-13T04:01:14.850Z,100239.81
2022-12-13T04:03:43.467Z,100243.22
2022-12-13T04:06:10.517Z,100245.59
2022-12-13T04:08:38.450Z,100244.56
2022-12-13T04:11:25.491Z,100241.84
2022-12-13T04:13:53.495Z,100233.31
2022-12-13T04:16:21.212Z,100238.69
2022-12-13T04:18:48.010Z,100238.13
2022-12-13T04:21:14.653Z,100232.25
2022-12-13T04:23:41.251Z,100238.22
2022-12-13T04:26:08.873Z,100230.91
2022-12-13T04:28:35.401Z,100225.47
2022-12-13T04:31:02.468Z,100218.06
2022-12-13T04:33:29.419Z,100221.78
2022-12-13T04:35:55.994Z,100225.66
2022-12-13T04:38:22.777Z,100219.34
2022-12-13T04:40:49.377Z,100221.19
2022-12-13T04:43:16.040Z,100222.78
2022-12-13T04:45:42.720Z,100223.22
2022-12-13T04:48:09.338Z,100225.84
2022-12-13T04:50:36.459Z,100223.06
2022-12-13T04:53:03.562Z,100216.28
2022-12-13T04:55:30.167Z,100204.25
2022-12-13T04:57:56.715Z,100215.78
2022-12-13T05:00:23.489Z,100211.75
2022-12-13T05:02:50.821Z,100226.38
2022-12-13T05:05:18.148Z,100220.84
2022-12-13T05:07:45.375Z,100225.34
2022-12-13T05:10:12.903Z,100224.44
2022-12-13T05:12:59.770Z,100213.72
2022-12-13T05:15:27.716Z,100216.13
2022-12-13T05:17:54.286Z,100220.25
2022-12-13T05:20:21.268Z,100216.91
2022-12-13T05:22:47.966Z,100218.91
2022-12-13T05:25:15.110Z,100215.47
2022-12-13T05:27:41.870Z,100206.41
2022-12-13T05:30:09.120Z,100210.91
2022-12-13T05:32:43.846Z,100213.22
2022-12-13T05:35:13.241Z,100210.56
2022-12-13T05:37:40.273Z,100215.06
2022-12-13T05:40:08.192Z,100207.38
2022-12-13T05:42:34.732Z,100210.97
2022-12-13T05:45:01.276Z,100210.50
2022-12-13T05:47:28.926Z,100206.09
2022-12-13T05:49:55.467Z,100214.66
2022-12-13T05:52:30.744Z,100216.97
2022-12-13T05:55:00.953Z,100208.28
2022-12-13T05:57:28.044Z,100213.94
2022-12-13T05:59:54.640Z,100206.53
2022-12-13T06:02:22.132Z,100219.78
2022-12-13T06:04:49.256Z,100215.16
2022-12-13T06:07:16.212Z,100219.22
2022-12-13T06:09:43.014Z,100217.47
2022-12-13T06:12:31.411Z,100218.41
2022-12-13T06:15:01.171Z,100221.75
2022-12-13T06:17:37.641Z,100215.06
2022-12-13T06:20:22.871Z,100212.06
2022-12-13T06:22:52.036Z,100209.69
2022-12-13T06:25:30.460Z,100209.97
2022-12-13T06:28:01.100Z,100207.16
2022-12-13T06:30:29.254Z,100211.34
2022-12-13T06:32:56.045Z,100206.97
2022-12-13T06:35:27.399Z,100210.69
2022-12-13T06:38:01.886Z,100214.25
2022-12-13T06:40:31.195Z,100214.88
2022-12-13T06:42:57.821Z,100215.06
2022-12-13T06:45:25.098Z,100221.72
2022-12-13T06:47:51.707Z,100219.72
2022-12-13T06:50:18.257Z,100227.09
2022-12-13T06:52:46.496Z,100224.41
2022-12-13T06:55:14.172Z,100222.31
2022-12-13T06:57:41.635Z,100223.72
2022-12-13T07:00:09.674Z,100227.97
2022-12-13T07:02:38.031Z,100238.44
2022-12-13T07:05:05.405Z,100231.31
2022-12-13T07:07:32.006Z,100236.50
2022-12-13T07:09:58.675Z,100230.16
2022-12-13T07:12:25.280Z,100240.53
2022-12-13T07:14:52.375Z,100237.66
2022-12-13T07:17:33.118Z,100239.34
2022-12-13T07:20:02.107Z,100242.53
2022-12-13T07:22:29.215Z,100243.38
2022-12-13T07:25:03.125Z,100241.53
2022-12-13T07:27:29.714Z,100246.94
2022-12-13T07:29:56.332Z,100239.13
2022-12-13T07:32:22.846Z,100235.88
2022-12-13T07:34:49.469Z,100234.81
2022-12-13T07:37:30.686Z,100233.88
2022-12-13T07:40:03.243Z,100233.66
2022-12-13T07:42:30.770Z,100249.44
2022-12-13T07:44:57.360Z,100243.69
2022-12-13T07:47:25.809Z,100249.47
2022-12-13T07:49:52.815Z,100245.00
2022-12-13T07:52:19.344Z,100247.03
2022-12-13T07:54:46.350Z,100247.97
2022-12-13T07:57:13.336Z,100241.28
2022-12-13T07:59:39.913Z,100250.38
2022-12-13T08:02:07.140Z,100244.03
2022-12-13T08:04:37.700Z,100242.63
2022-12-13T08:07:11.631Z,100243.41
2022-12-13T08:09:38.332Z,100252.41
2022-12-13T08:12:05.370Z,100254.81
2022-12-13T08:14:32.224Z,100251.03
2022-12-13T08:16:59.006Z,100262.38
2022-12-13T08:19:25.890Z,100260.09
2022-12-13T08:21:55.010Z,100263.19
2022-12-13T08:24:27.770Z,100262.81
2022-12-13T08:26:55.608Z,100258.34
2022-12-13T08:29:34.156Z,100271.75
2022-12-13T08:32:07.694Z,100268.00
2022-12-13T08:34:34.549Z,100269.22
2022-12-13T08:37:02.751Z,100269.53
2022-12-13T08:39:34.074Z,100267.94
2022-12-13T08:42:17.149Z,100271.94
2022-12-13T08:44:50.110Z,100269.81
2022-12-13T08:47:23.015Z,100269.75
2022-12-13T08:49:53.160Z,100275.03
2022-12-13T08:52:21.650Z,100268.09
2022-12-13T08:54:48.464Z,100269.56
2022-12-13T08:57:15.646Z,100274.84
2022-12-13T08:59:42.533Z,100277.25
2022-12-13T09:02:13.473Z,100277.59
2022-12-13T09:04:40.185Z,100272.38
2022-12-13T09:07:07.209Z,100273.59
2022-12-13T09:09:33.824Z,100269.81
2022-12-13T09:12:01.110Z,100275.91
2022-12-13T09:14:37.133Z,100274.69
2022-12-13T09:17:14.794Z,100279.50
2022-12-13T09:19:51.292Z,100283.09
2022-12-13T09:22:33.168Z,100283.88
2022-12-13T09:25:02.714Z,100280.09
2022-12-13T09:27:31.172Z,100282.13
2022-12-13T09:30:08.088Z,100278.19
2022-12-13T09:32:34.739Z,100271.97
2022-12-13T09:35:01.886Z,100274.81
2022-12-13T09:37:29.644Z,100279.13
2022-12-13T09:39:56.291Z,100267.16
2022-12-13T09:42:30.739Z,100273.59
2022-12-13T09:45:22.297Z,100272.78
2022-12-13T09:47:52.357Z,100275.53
2022-12-13T09:50:37.813Z,100275.31
2022-12-13T09:53:12.208Z,100273.84
2022-12-13T09:55:52.717Z,100274.00
2022-12-13T09:58:28.287Z,100278.19
2022-12-13T10:00:56.482Z,100265.78
2022-12-13T10:03:25.153Z,100262.28
2022-12-13T10:06:01.377Z,100260.03
2022-12-13T10:08:40.823Z,100254.84
2022-12-13T10:11:07.411Z,100260.25
2022-12-13T10:13:42.669Z,100262.34
2022-12-13T10:16:36.209Z,100250.88
2022-12-13T10:19:27.986Z,100257.69
2022-12-13T10:22:02.227Z,100258.50
2022-12-13T10:24:47.414Z,100260.94
2022-12-13T10:27:17.154Z,100256.81
2022-12-13T10:30:13.185Z,100261.81
2022-12-13T10:32:53.105Z,100254.75
2022-12-13T10:35:40.795Z,100260.53
2022-12-13T10:38:13.202Z,100253.84
2022-12-13T10:40:46.558Z,100245.03
2022-12-13T10:43:26.269Z,100249.22
2022-12-13T10:45:57.712Z,100247.16
2022-12-13T10:48:39.440Z,100248.66
2022-12-13T10:51:09.103Z,100242.72
2022-12-13T10:53:47.454Z,100239.56
2022-12-13T10:56:22.763Z,100234.84
2022-12-13T10:59:13.356Z,100226.41
2022-12-13T11:01:44.078Z,100230.97
2022-12-13T11:04:32.459Z,100235.53
2022-12-13T11:07:01.882Z,100222.63
2022-12-13T11:09:38.699Z,100227.44
2022-12-13T11:12:16.322Z,100223.38
2022-12-13T11:14:55.482Z,100211.78
2022-12-13T11:17:26.423Z,100218.03
2022-12-13T11:20:00.436Z,100220.13
2022-12-13T11:22:29.617Z,100220.22
2022-12-13T11:25:07.797Z,100212.16
2022-12-13T11:27:59.880Z,100208.22
2022-12-13T11:30:35.537Z,100208.22
2022-12-13T11:33:08.464Z,100206.38
2022-12-13T11:35:43.737Z,100206.13
2022-12-13T11:38:29.542Z,100199.41
2022-12-13T11:41:11.195Z,100192.44
2022-12-13T11:43:46.916Z,100198.91
2022-12-13T11:46:20.777Z,100200.16
2022-12-13T11:48:53.281Z,100190.22
2022-12-13T11:51:36.111Z,100187.38
2022-12-13T11:54:24.118Z,100186.94
2022-12-13T11:57:00.299Z,100188.34
2022-12-13T11:59:39.963Z,100177.88
2022-12-13T12:02:21.685Z,100169.97
2022-12-13T12:05:00.468Z,100172.38
2022-12-13T12:07:58.387Z,100168.88
2022-12-13T12:10:49.437Z,100169.94
2022-12-13T12:13:22.198Z,100165.56
2022-12-13T12:16:22.982Z,100174.78
2022-12-13T12:18:51.509Z,100172.13
2022-12-13T12:21:49.558Z,100165.94
2022-12-13T12:25:10.671Z,100167.06
2022-12-13T12:27:55.008Z,100162.94
2022-12-13T12:30:24.771Z,100158.78
2022-12-13T12:33:13.936Z,100161.69
2022-12-13T12:35:54.503Z,100150.53
2022-12-13T12:38:27.321Z,100157.97
2022-12-13T12:41:16.745Z,100154.19
2022-12-13T12:43:45.129Z,100147.38
2022-12-13T12:47:08.959Z,100149.03
2022-12-13T12:49:45.991Z,100148.09
2022-12-13T12:52:18.343Z,100144.19
2022-12-13T12:55:03.021Z,100143.00
2022-12-13T12:57:44.949Z,100141.69
2022-12-13T13:00:17.853Z,100135.28
2022-12-13T13:02:47.334Z,100153.38
2022-12-13T13:05:42.586Z,100147.63
2022-12-13T13:08:09.050Z,100151.03
2022-12-13T13:10:41.134Z,100139.47
2022-12-13T13:13:36.806Z,100134.81
2022-12-13T13:16:28.681Z,100133.63
2022-12-13T13:18:57.041Z,100128.81
2022-12-13T13:21:23.921Z,100123.63
2022-12-13T13:24:08.957Z,100125.81
2022-12-13T13:26:44.753Z,100120.88
2022-12-13T13:29:27.731Z,100119.28
2022-12-13T13:32:28.799Z,100122.66
2022-12-13T13:35:32.208Z,100122.25
2022-12-13T13:38:05.074Z,100126.13
2022-12-13T13:40:39.410Z,100132.44
2022-12-13T13:43:08.725Z,100132.75
2022-12-13T13:46:09.247Z,100139.00
2022-12-13T13:48:40.280Z,100134.34
2022-12-13T13:51:41.418Z,100133.84
2022-12-13T13:54:38.125Z,100130.09
2022-12-13T13:57:28.917Z,100129.03
2022-12-13T14:00:15.097Z,100133.69
2022-12-13T14:03:22.118Z,100131.38
2022-12-13T14:06:15.816Z,100131.41
2022-12-13T14:09:04.430Z,100137.31
2022-12-13T14:11:43.279Z,100133.00
2022-12-13T14:14:31.719Z,100122.03
2022-12-13T14:17:08.066Z,100132.75
2022-12-13T14:19:41.405Z,100130.22
2022-12-13T14:22:13.765Z,100123.72
2022-12-13T14:25:23.384Z,100117.69
2022-12-13T14:28:15.244Z,100117.06
2022-12-13T14:30:47.844Z,100114.06
2022-12-13T14:33:26.415Z,100101.56
2022-12-13T14:35:56.593Z,100115.41
2022-12-13T14:38:31.099Z,100112.09
2022-12-13T14:41:02.757Z,100109.84
2022-12-13T14:43:32.338Z,100113.72
2022-12-13T14:46:05.013Z,100110.38
2022-12-13T14:48:37.406Z,100111.97
2022-12-13T14:51:04.761Z,100107.66
2022-12-13T14:53:39.171Z,100117.81
2022-12-13T14:56:27.440Z,100104.06
2022-12-13T14:58:57.648Z,100107.94
2022-12-13T15:01:35.920Z,100107.69
2022-12-13T15:04:21.304Z,100115.66
2022-12-13T15:06:56.950Z,100113.66
2022-12-13T15:09:24.914Z,100113.09
2022-12-13T15:12:01.361Z,100122.88
2022-12-13T15:14:45.695Z,100119.88
2022-12-13T15:17:27.377Z,100126.09
2022-12-13T15:19:57.057Z,100119.03
2022-12-13T15:22:29.743Z,100111.66
2022-12-13T15:25:03.080Z,100109.88
2022-12-13T15:27:33.791Z,100104.09
2022-12-13T15:30:00.574Z,100111.78
2022-12-13T15:32:27.181Z,100116.00
2022-12-13T15:34:54.482Z,100112.28
2022-12-13T15:37:39.701Z,100112.81
2022-12-13T15:40:08.726Z,100111.59
2022-12-13T15:42:38.391Z,100112.94
2022-12-13T15:45:19.835Z,100108.03
2022-12-13T15:47:47.584Z,100121.03
2022-12-13T15:50:34.963Z,100107.72
2022-12-13T15:53:05.899Z,100114.59
2022-12-13T15:55:35.402Z,100117.72
2022-12-13T15:58:03.173Z,100113.56
2022-12-13T16:00:35.067Z,100114.75
2022-12-13T16:03:08.473Z,100110.91
2022-12-13T16:05:40.507Z,100107.50
2022-12-13T16:08:16.109Z,100103.53
2022-12-13T16:10:48.339Z,100107.31
2022-12-13T16:13:26.344Z,100097.56
2022-12-13T16:15:59.999Z,100099.91
2022-12-13T16:18:46.463Z,100105.47
2022-12-13T16:21:14.183Z,100106.44
2022-12-13T16:23:40.783Z,100107.00
2022-12-13T16:26:22.036Z,100101.53
2022-12-13T16:28:48.662Z,100095.16
2022-12-13T16:31:22.540Z,100097.97
2022-12-13T16:33:49.541Z,100099.03
2022-12-13T16:36:17.056Z,100095.53
2022-12-13T16:38:43.713Z,100095.25
2022-12-13T16:41:10.579Z,100096.84
2022-12-13T16:43:40.448Z,100086.22
2022-12-13T16:47:10.032Z,100085.75
2022-12-13T16:48:54.623Z,100092.50
2022-12-13T16:51:21.858Z,100081.22
2022-12-13T16:53:48.600Z,100075.88
2022-12-13T16:56:21.305Z,100073.44
2022-12-13T16:58:50.310Z,100076.38
2022-12-13T17:01:22.742Z,100076.38
2022-12-13T17:03:49.571Z,100073.25
2022-12-13T17:06:22.476Z,100079.94
2022-12-13T17:08:49.199Z,100072.13
2022-12-13T17:11:18.334Z,100073.38
2022-12-13T17:13:47.551Z,100075.59
2022-12-13T17:16:14.329Z,100069.22
2022-12-13T17:18:41.767Z,100068.66
2022-12-13T17:21:09.766Z,100075.78
2022-12-13T17:23:36.627Z,100070.53
2022-12-13T17:26:08.730Z,100061.16
2022-12-13T17:28:35.578Z,100056.22
2022-12-13T17:31:07.685Z,100055.09
2022-12-13T17:33:34.964Z,100048.56
2022-12-13T17:36:03.747Z,100044.03
2022-12-13T17:38:30.737Z,100048.56
2022-12-13T17:40:57.319Z,100035.94
2022-12-13T17:43:34.418Z,100030.34
2022-12-13T17:46:07.540Z,100026.03
2022-12-13T17:48:40.442Z,100027.41
2022-12-13T17:51:09.370Z,100025.41
2022-12-13T17:53:36.895Z,100024.47
2022-12-13T17:56:06.390Z,100024.88
2022-12-13T17:58:33.821Z,100021.84
2022-12-13T18:01:14.475Z,100022.91
2022-12-13T18:03:41.285Z,100025.22
2022-12-13T18:06:08.172Z,100027.22
2022-12-13T18:08:36.456Z,100029.53
2022-12-13T18:13:54.454Z,100029.53
2022-12-13T18:16:23.605Z,100026.31
2022-12-13T18:18:54.955Z,100029.22
2022-12-13T18:21:24.023Z,100034.75
2022-12-13T18:23:55.491Z,100039.97
2022-12-13T18:26:24.455Z,100037.13
2022-12-13T18:28:51.744Z,100040.53
2022-12-13T18:31:22.685Z,100029.31
2022-12-13T18:33:51.453Z,100036.88
2022-12-13T18:36:19.081Z,100043.41
2022-12-13T18:38:46.120Z,100032.22
2022-12-13T18:41:19.192Z,100034.97
2022-12-13T18:43:47.591Z,100027.56
2022-12-13T18:46:15.268Z,100024.72
2022-12-13T18:48:42.451Z,100029.81
2022-12-13T18:51:10.374Z,100024.13
2022-12-13T18:53:39.108Z,100030.16
2022-12-13T18:56:12.897Z,100024.03
2022-12-13T18:58:44.532Z,100021.41
2022-12-13T19:01:13.268Z,100021.66
2022-12-13T19:03:40.101Z,100017.09
2022-12-13T19:06:07.489Z,100018.50
2022-12-13T19:08:36.708Z,100020.53
2022-12-13T19:11:03.956Z,100018.69
2022-12-13T19:13:31.907Z,100012.72
2022-12-13T19:16:05.633Z,100017.44
2022-12-13T19:18:32.384Z,100007.78
2022-12-13T19:20:59.052Z,100006.03
2022-12-13T19:23:26.397Z,100001.47
2022-12-13T19:25:53.189Z,100001.47
2022-12-13T19:28:20.064Z,99997.28
2022-12-13T19:30:47.576Z,100001.03
2022-12-13T19:33:14.739Z,99998.97
2022-12-13T19:35:44.998Z,99998.03
2022-12-13T19:38:12.220Z,99999.44
2022-12-13T19:40:40.051Z,99994.06
2022-12-13T19:43:06.879Z,99987.66
2022-12-13T19:45:34.022Z,99989.69
2022-12-13T19:48:00.633Z,99988.88
2022-12-13T19:50:28.777Z,99981.56
2022-12-13T19:52:55.638Z,99979.00
2022-12-13T19:55:22.175Z,99975.31
2022-12-13T19:57:48.786Z,99967.94
2022-12-13T20:00:15.999Z,99967.09
2022-12-13T20:02:42.679Z,99964.41
2022-12-13T20:05:09.504Z,99963.03
2022-12-13T20:07:36.240Z,99964.41
2022-12-13T20:10:05.228Z,99959.09
2022-12-13T20:12:35.679Z,99964.19
2022-12-13T20:15:08.117Z,99960.34
2022-12-13T20:17:35.497Z,99964.06
2022-12-13T20:20:02.693Z,99962.97
2022-12-13T20:22:29.739Z,99962.28
2022-12-13T20:24:56.327Z,99962.13
2022-12-13T20:27:23.010Z,99953.56
2022-12-13T20:29:50.487Z,99957.91
2022-12-13T20:32:17.127Z,99962.63
2022-12-13T20:34:44.395Z,99954.75
2022-12-13T20:37:10.930Z,99953.59
2022-12-13T20:39:37.827Z,99951.38
2022-12-13T20:42:04.421Z,99948.34
2022-12-13T20:44:32.502Z,99943.25
2022-12-13T20:46:59.138Z,99941.22
2022-12-13T20:49:26.075Z,99932.50
2022-12-13T20:51:52.930Z,99936.84
2022-12-13T20:54:19.472Z,99940.88
2022-12-13T20:56:46.007Z,99932.44
2022-12-13T20:59:13.209Z,99925.88
2022-12-13T21:01:41.438Z,99919.19
2022-12-13T21:04:09.400Z,99915.44
2022-12-13T21:06:38.537Z,99922.09
2022-12-13T21:09:06.443Z,99922.50
2022-12-13T21:11:35.025Z,99926.41
2022-12-13T21:14:09.220Z,99924.88
2022-12-13T21:16:39.736Z,99919.16
2022-12-13T21:19:08.852Z,99920.66
2022-12-13T21:21:35.893Z,99922.09
2022-12-13T21:24:03.486Z,99914.91
2022-12-13T21:26:35.253Z,99911.19
2022-12-13T21:29:06.470Z,99910.94
2022-12-13T21:31:34.988Z,99908.94
2022-12-13T21:34:02.760Z,99907.94
2022-12-13T21:36:33.720Z,99909.91
2022-12-13T21:39:04.115Z,99904.16
2022-12-13T21:41:30.925Z,99904.69
2022-12-13T21:43:57.571Z,99901.94
2022-12-13T21:46:47.442Z,99901.16
2022-12-13T21:49:14.919Z,99900.78
2022-12-13T21:51:47.644Z,99907.72
2022-12-13T21:54:14.783Z,99910.91
2022-12-13T21:57:00.180Z,99903.19
2022-12-13T21:59:28.571Z,99905.06
2022-12-13T22:02:12.525Z,99901.69
2022-12-13T22:04:44.259Z,99893.66
2022-12-13T22:07:13.558Z,99894.72
2022-12-13T22:09:40.675Z,99892.81
2022-12-13T22:12:10.059Z,99888.47
2022-12-13T22:14:37.479Z,99882.63
2022-12-13T22:17:04.175Z,99888.94
2022-12-13T22:19:30.722Z,99876.38
2022-12-13T22:21:57.364Z,99874.94
2022-12-13T22:24:23.871Z,99875.13
2022-12-13T22:26:50.555Z,99873.41
2022-12-13T22:29:17.116Z,99870.94
2022-12-13T22:31:43.886Z,99879.91
2022-12-13T22:34:15.552Z,99873.19
2022-12-13T22:36:42.368Z,99872.03
2022-12-13T22:39:16.247Z,99869.78
2022-12-13T22:41:42.911Z,99864.41
2022-12-13T22:44:11.266Z,99872.19
2022-12-13T22:46:38.435Z,99873.63
2022-12-13T22:49:05.565Z,99864.84
2022-12-13T22:51:32.348Z,99862.94
2022-12-13T22:53:58.898Z,99859.72
2022-12-13T22:56:25.842Z,99856.66
2022-12-13T22:58:54.427Z,99858.03
2022-12-13T23:01:27.274Z,99853.06
2022-12-13T23:03:55.004Z,99850.50
2022-12-13T23:06:24.108Z,99848.50
2022-12-13T23:08:56.448Z,99840.19
2022-12-13T23:11:42.577Z,99837.41
2022-12-13T23:14:12.295Z,99836.03
2022-12-13T23:16:39.421Z,99842.09
2022-12-13T23:19:40.292Z,99843.03
2022-12-13T23:21:56.812Z,99842.00
2022-12-13T23:24:23.438Z,99840.91
2022-12-13T23:26:49.993Z,99839.63
2022-12-13T23:29:17.046Z,99838.94
2022-12-13T23:31:44.868Z,99839.19
2022-12-13T23:34:15.892Z,99833.78
2022-12-13T23:36:43.262Z,99823.72
2022-12-13T23:39:11.267Z,99819.66
2022-12-13T23:41:38.143Z,99821.72
2022-12-13T23:44:04.872Z,99808.09
2022-12-13T23:46:34.348Z,99813.88
2022-12-13T23:49:04.476Z,99807.06
2022-12-13T23:51:31.988Z,99800.63
2022-12-13T23:53:59.045Z,99801.22
2022-12-13T23:56:25.912Z,99800.78
2022-12-13T23:58:52.592Z,99786.22
